Time;durP1;ratioP1;P1;durP2;ratioP2;P2;SDS_P1;SDS_P2;PMS_P1;PMS_P2;Temp;Humidity;BMP_temperature;BMP_pressure;BME280_temperature;BME280_humidity;BME280_pressure;Samples;Min_cycle;Max_cycle;Signal;HPM_P1;HPM_P2
2024/01/16 00:00:32;;;;;;;1.10;0.90;;;3.60;94.70;;;5.13;66.19;100227.84;3083023;46;20427;-66
2024/01/16 00:03:00;;;;;;;1.90;0.97;;;3.50;94.80;;;5.10;66.21;100238.56;3082521;46;20986;-66
2024/01/16 00:05:29;;;;;;;1.23;0.90;;;3.50;94.80;;;5.08;66.24;100248.34;3082835;46;20427;-65
2024/01/16 00:07:59;;;;;;;1.43;0.90;;;3.50;95.00;;;5.08;66.40;100256.16;3082254;46;20509;-67
2024/01/16 00:10:28;;;;;;;1.33;0.90;;;3.40;94.90;;;5.07;66.58;100249.31;3082373;46;20586;-66
2024/01/16 00:12:56;;;;;;;1.50;0.77;;;3.40;95.00;;;5.09;66.53;100256.97;3082366;46;21009;-67
2024/01/16 00:15:24;;;;;;;1.63;1.17;;;3.40;95.10;;;5.08;66.44;100248.34;3082684;46;20452;-67
2024/01/16 00:17:53;;;;;;;1.87;0.87;;;3.40;95.20;;;5.07;66.56;100249.31;3082140;46;20501;-67
2024/01/16 00:20:23;;;;;;;1.10;0.97;;;3.40;95.30;;;5.07;66.62;100248.47;3082486;46;20936;-67
2024/01/16 00:22:51;;;;;;;1.87;1.00;;;3.40;95.40;;;5.05;66.66;100251.25;3082686;46;20446;-67
2024/01/16 00:25:20;;;;;;;1.63;1.10;;;3.40;95.40;;;5.03;66.65;100262.78;3082420;46;20427;-66
2024/01/16 00:27:48;;;;;;;1.17;0.80;;;3.40;95.40;;;5.00;66.81;100263.91;3082155;46;20698;-65
2024/01/16 00:30:17;;;;;;;1.60;0.93;;;3.30;95.40;;;5.01;67.02;100264.75;3082322;46;20549;-66
2024/01/16 00:32:46;;;;;;;1.50;0.83;;;3.30;95.50;;;5.01;67.02;100269.94;3081681;46;20459;-67
2024/01/16 00:35:15;;;;;;;0.90;0.70;;;3.30;95.60;;;5.02;67.22;100266.34;3082589;46;20555;-66
2024/01/16 00:37:43;;;;;;;2.67;0.83;;;3.30;95.60;;;5.01;67.12;100281.22;3082134;46;21031;-66
2024/01/16 00:40:12;;;;;;;1.27;0.60;;;3.30;95.60;;;5.02;66.83;100275.00;3082207;46;20427;-66
2024/01/16 00:42:41;;;;;;;1.43;0.80;;;3.30;95.60;;;5.04;67.08;100282.69;3082154;46;20459;-66
2024/01/16 00:45:09;;;;;;;2.33;0.80;;;3.30;95.70;;;5.05;67.27;100286.94;3082187;46;20504;-66
2024/01/16 00:47:38;;;;;;;2.40;0.80;;;3.30;95.70;;;5.07;67.26;100292.81;3081869;46;21207;-66
2024/01/16 00:50:07;;;;;;;1.27;0.77;;;3.30;95.70;;;5.07;66.87;100285.81;3082507;46;20583;-66
2024/01/16 00:52:35;;;;;;;0.93;0.83;;;3.40;95.80;;;5.07;67.16;100284.97;3082063;46;21071;-66
2024/01/16 00:55:05;;;;;;;2.83;1.40;;;3.30;95.80;;;5.07;67.40;100284.97;3082219;46;21005;-66
2024/01/16 00:57:33;;;;;;;1.80;1.33;;;3.40;95.90;;;5.07;67.31;100291.03;3081787;46;20480;-66
2024/01/16 01:00:03;;;;;;;1.93;1.60;;;3.30;95.80;;;5.06;67.25;100284.19;3082387;46;20452;-66
2024/01/16 01:02:32;;;;;;;2.77;1.73;;;3.30;95.80;;;5.06;67.36;100284.19;3081828;46;21078;-66
2024/01/16 01:05:00;;;;;;;2.73;1.80;;;3.40;95.90;;;5.07;67.31;100291.03;3082263;46;20446;-66
2024/01/16 01:07:29;;;;;;;2.27;1.77;;;3.30;95.90;;;5.08;67.45;100292.69;3081583;46;20457;-66
2024/01/16 01:09:57;;;;;;;2.03;1.60;;;3.30;95.90;;;5.07;67.33;100298.84;3081545;46;21187;-66
2024/01/16 01:12:26;;;;;;;1.63;1.53;;;3.30;95.80;;;5.05;67.35;100297.34;3081702;46;21102;-66
2024/01/16 01:14:54;;;;;;;1.90;1.70;;;3.30;95.80;;;5.02;67.32;100298.47;3081870;46;20423;-64
2024/01/16 01:17:23;;;;;;;1.53;1.43;;;3.30;95.80;;;5.03;67.54;100305.34;3081470;46;20449;-66
2024/01/16 01:19:51;;;;;;;1.87;1.20;;;3.30;96.00;;;5.01;67.79;100316.88;3081825;46;20443;-66
2024/01/16 01:22:19;;;;;;;3.10;1.40;;;3.30;95.90;;;4.98;67.41;100320.63;3082247;46;20432;-66
2024/01/16 01:24:48;;;;;;;2.87;1.07;;;3.30;95.80;;;4.95;67.53;100320.91;3081047;46;20457;-66
2024/01/16 01:27:16;;;;;;;0.67;0.60;;;3.30;95.70;;;4.90;67.73;100317.91;3081621;46;20448;-66
2024/01/16 01:29:45;;;;;;;1.87;0.63;;;3.30;95.70;;;4.89;67.78;100318.91;3080970;46;20461;-66
2024/01/16 01:32:13;;;;;;;2.20;0.70;;;3.30;95.60;;;4.85;67.53;100324.56;3081722;46;21019;-65
2024/01/16 01:34:42;;;;;;;3.07;0.97;;;3.20;95.50;;;4.81;67.66;100329.22;3082074;46;20431;-65
2024/01/16 01:37:10;;;;;;;1.40;0.90;;;3.20;95.50;;;4.78;67.73;100337.34;3081369;46;20441;-67
2024/01/16 01:39:39;;;;;;;2.77;0.93;;;3.20;95.40;;;4.78;67.91;100342.56;3081667;46;21029;-65
2024/01/16 01:42:08;;;;;;;2.20;0.87;;;3.20;95.70;;;4.79;67.76;100349.41;3081799;46;20438;-66
2024/01/16 01:44:36;;;;;;;2.57;1.23;;;3.20;95.40;;;4.78;67.75;100353.81;3081808;46;20529;-66
2024/01/16 01:47:05;;;;;;;1.80;0.53;;;3.10;95.40;;;4.82;67.66;100341.31;3081249;46;21142;-66
2024/01/16 01:49:36;;;;;;;1.93;0.60;;;3.10;95.40;;;4.83;67.79;100345.53;3081713;46;20998;-66
2024/01/16 01:52:05;;;;;;;2.63;0.80;;;3.20;95.50;;;4.83;67.60;100345.53;3081741;46;20442;-66
2024/01/16 01:54:37;;;;;;;1.50;0.50;;;3.10;95.30;;;4.83;67.49;100345.53;3081798;46;20427;-64
2024/01/16 01:57:08;;;;;;;2.13;0.70;;;3.10;95.30;;;4.83;67.31;100350.75;3081850;46;20443;-64
2024/01/16 01:59:39;;;;;;;1.80;0.70;;;3.10;95.20;;;4.82;67.18;100355.16;3081477;46;20438;-66
2024/01/16 02:02:12;;;;;;;3.30;0.77;;;3.10;95.10;;;4.82;67.16;100370.00;3080467;46;20497;-66
2024/01/16 02:04:43;;;;;;;1.13;0.60;;;3.20;95.10;;;4.83;66.97;100387.25;3081300;46;20481;-66
2024/01/16 02:07:12;;;;;;;0.73;0.60;;;3.10;95.10;;;4.82;67.11;100387.41;3080814;46;20532;-64
2024/01/16 02:09:43;;;;;;;0.70;0.60;;;3.10;95.10;;;4.79;67.18;100381.53;3081285;46;20434;-64
2024/01/16 02:12:12;;;;;;;0.73;0.40;;;3.10;95.10;;;4.77;66.98;100385.25;3081452;46;20491;-65
2024/01/16 02:14:40;;;;;;;1.67;0.67;;;3.10;95.30;;;4.73;67.38;100395.13;3082216;46;20530;-65
2024/01/16 02:17:10;;;;;;;1.97;0.83;;;3.10;95.40;;;4.69;67.17;100390.34;3080645;46;20498;-66
2024/01/16 02:19:38;;;;;;;1.03;0.60;;;3.10;95.40;;;4.64;67.19;100387.34;3081711;46;20434;-68
2024/01/16 02:22:21;;;;;;;0.80;0.40;;;3.00;95.30;;;4.56;67.30;100385.50;3082288;46;20446;-66
2024/01/16 02:24:50;;;;;;;2.00;0.80;;;3.00;95.20;;;4.52;67.30;100385.91;3081412;46;20463;-66
2024/01/16 02:27:18;;;;;;;2.20;0.93;;;3.00;95.20;;;4.44;67.42;100386.66;3080378;46;20443;-66
2024/01/16 02:29:49;;;;;;;1.90;0.50;;;2.90;95.20;;;4.39;67.30;100393.25;3081419;46;21007;-65
2024/01/16 02:32:17;;;;;;;1.97;0.97;;;2.90;95.20;;;4.37;67.43;100396.00;3081244;46;20594;-64
2024/01/16 02:34:46;;;;;;;1.63;0.70;;;2.80;95.20;;;4.36;67.58;100404.78;3081251;46;21144;-66
2024/01/16 02:37:15;;;;;;;1.53;0.77;;;2.80;95.30;;;4.36;67.78;100409.97;3081099;46;20438;-66
2024/01/16 02:39:43;;;;;;;0.73;0.73;;;2.80;95.30;;;4.36;67.71;100409.16;3081500;46;20437;-66
2024/01/16 02:42:11;;;;;;;2.63;1.00;;;2.80;95.40;;;4.38;67.70;100410.66;3081734;46;20533;-68
2024/01/16 02:44:40;;;;;;;2.03;0.90;;;2.70;95.40;;;4.39;67.74;100399.28;3081337;46;20566;-66
2024/01/16 02:47:09;;;;;;;1.33;0.90;;;2.70;95.50;;;4.41;67.80;100396.53;3082001;46;20523;-65
2024/01/16 02:49:39;;;;;;;3.17;0.93;;;2.70;95.90;;;4.43;67.73;100405.00;3082708;46;20446;-66
2024/01/16 02:52:08;;;;;;;3.47;1.03;;;2.70;95.70;;;4.42;67.78;100398.19;3082124;46;20434;-66
2024/01/16 02:54:36;;;;;;;2.07;1.07;;;2.70;95.80;;;4.41;67.72;100392.16;3083286;46;20431;-66
2024/01/16 02:57:05;;;;;;;1.97;1.30;;;2.70;95.90;;;4.40;68.01;100406.13;3083601;46;20446;-66
2024/01/16 02:59:33;;;;;;;0.97;0.83;;;2.70;95.90;;;4.38;68.04;100412.44;3082966;46;20440;-66
2024/01/16 03:02:02;;;;;;;3.33;1.03;;;2.70;95.90;;;4.39;67.87;100414.09;3081932;46;21011;-63
2024/01/16 03:04:31;;;;;;;2.73;0.93;;;2.70;95.90;;;4.38;68.17;100417.66;3081741;46;20463;-66
2024/01/16 03:06:59;;;;;;;1.53;1.00;;;2.70;96.00;;;4.38;68.07;100420.25;3080042;46;20452;-66
2024/01/16 03:09:28;;;;;;;2.40;1.00;;;2.70;96.00;;;4.36;68.08;100407.38;3081653;46;20431;-66
2024/01/16 03:11:57;;;;;;;2.73;0.90;;;2.70;96.00;;;4.34;68.15;100413.69;3080691;46;20446;-66
2024/01/16 03:14:26;;;;;;;1.83;1.20;;;2.70;95.80;;;4.27;67.89;100410.00;3080762;46;20505;-66
2024/01/16 03:16:54;;;;;;;1.27;0.90;;;2.70;95.70;;;4.23;67.81;100413.88;3080446;46;21029;-66
2024/01/16 03:19:22;;;;;;;4.63;1.30;;;2.70;95.60;;;4.15;67.81;100409.38;3080856;46;20446;-66
2024/01/16 03:21:51;;;;;;;3.17;1.10;;;2.60;95.40;;;4.10;68.09;100408.97;3080972;46;20438;-66
2024/01/16 03:24:19;;;;;;;3.33;1.57;;;2.60;95.30;;;4.05;68.11;100412.00;3080633;46;20575;-67
2024/01/16 03:26:48;;;;;;;5.70;1.50;;;2.60;95.30;;;4.04;67.93;100410.34;3080291;46;20541;-66
2024/01/16 03:29:16;;;;;;;4.23;1.40;;;2.50;95.30;;;4.03;68.20;100403.50;3080776;46;20575;-65
2024/01/16 03:31:45;;;;;;;3.93;1.07;;;2.50;95.30;;;4.04;68.25;100407.75;3080659;46;20473;-66
2024/01/16 03:34:13;;;;;;;2.20;1.00;;;2.50;95.40;;;4.03;67.87;100407.91;3080550;46;21102;-67
2024/01/16 03:36:42;;;;;;;5.20;1.00;;;2.40;95.30;;;3.98;67.75;100408.31;3080654;46;20434;-66
2024/01/16 03:39:11;;;;;;;5.53;1.00;;;2.40;95.20;;;3.91;67.69;100407.25;3080431;46;20565;-66
2024/01/16 03:41:40;;;;;;;2.30;1.00;;;2.40;95.10;;;3.82;67.78;100410.69;3080561;46;20512;-67
2024/01/16 03:44:08;;;;;;;5.37;1.10;;;2.30;95.00;;;3.75;67.50;100409.59;3080880;46;20524;-66
2024/01/16 03:46:37;;;;;;;5.47;1.63;;;2.30;94.90;;;3.67;67.52;100417.28;3080252;46;20564;-63
2024/01/16 03:49:05;;;;;;;3.93;1.27;;;2.20;94.90;;;3.62;67.91;100409.06;3082839;46;20582;-66
2024/01/16 03:51:33;;;;;;;4.33;1.77;;;2.20;95.00;;;3.60;68.11;100404.94;3082690;46;21038;-66
2024/01/16 03:54:02;;;;;;;4.00;1.37;;;2.10;95.00;;;3.57;68.24;100408.63;3083140;46;20508;-66
2024/01/16 03:56:31;;;;;;;3.43;1.03;;;2.10;95.10;;;3.53;67.72;100403.84;3082840;46;20435;-66
2024/01/16 03:58:59;;;;;;;4.60;1.03;;;2.00;95.00;;;3.49;67.82;100405.94;3082369;46;20457;-66
2024/01/16 04:01:36;;;;;;;3.37;1.17;;;2.00;95.00;;;3.45;67.72;100408.94;3082679;46;20547;-66
2024/01/16 04:04:06;;;;;;;2.97;1.10;;;2.00;95.10;;;3.41;67.66;100408.38;3082952;46;20431;-66
2024/01/16 04:06:35;;;;;;;5.17;2.20;;;1.90;95.00;;;3.35;67.90;100419.34;3083162;46;20470;-66
2024/01/16 04:09:04;;;;;;;3.33;1.00;;;1.90;95.00;;;3.31;68.01;100421.38;3082127;46;20477;-66
2024/01/16 04:11:32;;;;;;;5.43;1.20;;;1.80;95.00;;;3.27;68.01;100421.78;3082443;46;21058;-66
2024/01/16 04:14:01;;;;;;;3.53;1.03;;;1.80;95.00;;;3.23;68.14;100423.81;3082814;46;20434;-63
2024/01/16 04:16:30;;;;;;;4.23;1.60;;;1.80;95.10;;;3.22;68.24;100417.00;3082635;46;20438;-66
2024/01/16 04:18:59;;;;;;;1.83;1.13;;;1.70;95.10;;;3.19;67.95;100424.22;3082368;46;20474;-66
2024/01/16 04:21:27;;;;;;;4.30;1.33;;;1.70;95.10;;;3.18;67.83;100422.59;3082794;46;20503;-66
2024/01/16 04:23:56;;;;;;;8.23;1.50;;;1.70;95.10;;;3.15;68.29;100415.06;3082457;46;21137;-66
2024/01/16 04:26:24;;;;;;;3.83;1.27;;;1.60;95.10;;;3.14;68.07;100413.41;3082262;46;20438;-66
2024/01/16 04:28:53;;;;;;;2.83;1.20;;;1.60;95.10;;;3.13;68.28;100412.63;3082270;46;20531;-66
2024/01/16 04:31:22;;;;;;;3.67;0.97;;;1.60;95.20;;;3.11;68.28;100411.09;3082439;46;20471;-66
2024/01/16 04:33:50;;;;;;;3.37;0.90;;;1.60;95.20;;;3.10;67.97;100412.03;3082467;46;20516;-65
2024/01/16 04:36:19;;;;;;;2.80;1.10;;;1.60;95.20;;;3.09;68.03;100405.22;3082391;46;21061;-65
2024/01/16 04:38:47;;;;;;;4.87;1.10;;;1.60;95.20;;;3.08;67.98;100403.56;3082223;46;20600;-66
2024/01/16 04:41:19;;;;;;;2.00;1.23;;;1.50;95.20;;;3.06;67.92;100400.28;3082356;46;20434;-66
2024/01/16 04:43:49;;;;;;;3.07;1.43;;;1.50;95.30;;;3.04;67.89;100397.84;3082487;46;20524;-66
2024/01/16 04:46:18;;;;;;;1.87;1.10;;;1.50;95.20;;;3.02;67.98;100404.13;3082541;46;20438;-66
2024/01/16 04:48:46;;;;;;;5.67;1.20;;;1.50;95.20;;;3.01;68.03;100405.06;3081904;46;20483;-66
2024/01/16 04:51:15;;;;;;;3.87;1.43;;;1.50;95.20;;;2.99;68.08;100409.59;3082283;46;20526;-64
2024/01/16 04:53:43;;;;;;;5.57;1.33;;;1.50;95.20;;;2.99;68.08;100414.78;3082195;46;20445;-66
2024/01/16 04:56:12;;;;;;;7.17;1.53;;;1.50;95.30;;;2.99;68.12;100412.19;3082088;46;21013;-64
2024/01/16 04:58:41;;;;;;;5.10;1.27;;;1.40;95.30;;;2.98;68.11;100413.94;3081681;46;20446;-65
2024/01/16 05:01:09;;;;;;;11.67;1.50;;;1.40;95.30;;;2.98;68.24;100413.13;3082097;46;21079;-66
2024/01/16 05:03:37;;;;;;;3.07;1.03;;;1.40;95.30;;;2.97;68.44;100408.91;3082016;46;20459;-66
2024/01/16 05:06:14;;;;;;;3.10;1.30;;;1.40;95.30;;;2.97;68.23;100411.50;3082236;46;21161;-65
2024/01/16 05:08:43;;;;;;;3.77;1.30;;;1.40;95.50;;;2.97;68.26;100404.50;3081541;46;20489;-66
2024/01/16 05:11:11;;;;;;;3.40;1.40;;;1.40;95.40;;;2.96;68.36;100404.63;3081885;46;20438;-66
2024/01/16 05:13:40;;;;;;;2.70;1.33;;;1.40;95.50;;;2.99;68.58;100409.59;3082414;46;20434;-66
2024/01/16 05:16:10;;;;;;;4.30;1.67;;;1.40;95.50;;;2.99;68.70;100409.59;3082052;46;20439;-66
2024/01/16 05:18:41;;;;;;;5.50;1.63;;;1.50;95.60;;;3.01;68.63;100418.88;3081404;46;20499;-64
2024/01/16 05:21:10;;;;;;;5.10;1.37;;;1.50;95.60;;;3.04;68.44;100423.00;3082170;46;20464;-66
2024/01/16 05:23:38;;;;;;;7.57;1.30;;;1.50;95.60;;;3.10;68.41;100430.25;3082168;46;20438;-66
2024/01/16 05:26:07;;;;;;;4.80;1.30;;;1.50;95.60;;;3.15;68.40;100426.28;3082303;46;20518;-66
2024/01/16 05:28:35;;;;;;;3.80;1.53;;;1.50;95.60;;;3.22;68.69;100430.00;3081712;46;20444;-66
2024/01/16 05:31:04;;;;;;;10.03;2.40;;;1.50;95.70;;;3.32;69.08;100430.00;3081726;46;20439;-64
2024/01/16 05:33:32;;;;;;;7.37;1.90;;;1.60;96.00;;;3.42;68.85;100433.44;3082161;46;20434;-65
2024/01/16 05:36:02;;;;;;;4.57;1.63;;;1.60;95.90;;;3.49;68.35;100434.53;3081830;46;20438;-66
2024/01/16 05:38:30;;;;;;;9.70;2.23;;;1.70;95.90;;;3.53;68.19;100425.50;3081370;46;20551;-66
2024/01/16 05:40:58;;;;;;;4.00;1.77;;;1.80;95.80;;;3.56;68.28;100427.81;3081677;46;20434;-66
2024/01/16 05:43:28;;;;;;;4.37;1.27;;;1.80;95.60;;;3.54;68.01;100424.56;3081676;46;20457;-66
2024/01/16 05:45:57;;;;;;;12.90;2.17;;;1.80;95.50;;;3.52;67.86;100421.22;3081688;46;20442;-65
2024/01/16 05:48:27;;;;;;;6.27;1.43;;;1.90;95.20;;;3.49;67.90;100418.09;3081302;46;20533;-66
2024/01/16 05:50:56;;;;;;;5.67;1.50;;;1.80;95.10;;;3.48;67.79;100430.28;3081735;46;20435;-66
2024/01/16 05:53:24;;;;;;;7.73;1.87;;;1.80;95.10;;;3.46;67.47;100418.38;3081406;46;21001;-65
2024/01/16 05:55:54;;;;;;;6.90;1.50;;;1.80;95.10;;;3.46;67.85;100413.16;3081512;46;20743;-66
2024/01/16 05:58:22;;;;;;;4.63;1.70;;;1.80;95.10;;;3.47;67.80;100414.81;3081049;46;20475;-66
2024/01/16 06:00:51;;;;;;;7.23;1.50;;;1.80;95.10;;;3.48;67.94;100438.09;3081640;46;20438;-66
2024/01/16 06:03:20;;;;;;;4.90;1.70;;;1.80;95.10;;;3.50;67.95;100433.56;3081026;46;21120;-68
2024/01/16 06:05:48;;;;;;;8.27;1.70;;;1.80;95.10;;;3.55;67.93;100428.78;3081424;46;20430;-66
2024/01/16 06:08:17;;;;;;;3.70;1.53;;;1.90;95.30;;;3.61;67.85;100424.81;3080879;46;20471;-64
2024/01/16 06:10:46;;;;;;;3.43;1.30;;;1.80;95.40;;;3.66;67.73;100425.22;3080295;46;20446;-66
2024/01/16 06:13:14;;;;;;;4.03;1.47;;;1.90;95.40;;;3.67;67.38;100422.47;3081931;46;21131;-64
2024/01/16 06:15:42;;;;;;;8.57;3.07;;;1.90;95.30;;;3.69;67.32;100420.53;3081536;46;20548;-66
2024/01/16 06:18:11;;;;;;;10.53;1.80;;;1.90;95.20;;;3.68;67.52;100418.94;3080876;46;20471;-66
2024/01/16 06:20:39;;;;;;;4.53;1.43;;;2.00;95.20;;;3.69;67.24;100423.16;3081388;46;20446;-66
2024/01/16 06:23:08;;;;;;;3.90;1.70;;;2.00;95.20;;;3.69;67.37;100417.13;3081251;46;20428;-66
2024/01/16 06:25:36;;;;;;;3.80;1.40;;;2.00;95.20;;;3.71;67.53;100423.81;3081464;46;20434;-66
2024/01/16 06:28:07;;;;;;;4.90;2.10;;;2.00;95.20;;;3.71;67.48;100431.63;3080643;46;20472;-66
2024/01/16 06:30:35;;;;;;;11.03;2.27;;;2.00;95.20;;;3.71;67.48;100429.03;3081251;46;20438;-65
2024/01/16 06:33:04;;;;;;;7.20;2.07;;;2.00;95.20;;;3.72;67.42;100425.47;3080764;46;20522;-66
2024/01/16 06:35:33;;;;;;;4.83;1.73;;;2.00;95.20;;;3.74;67.54;100426.16;3081411;46;20442;-66
2024/01/16 06:38:02;;;;;;;7.20;1.60;;;2.00;95.20;;;3.75;67.37;100420.00;3080864;46;20600;-66
2024/01/16 06:40:30;;;;;;;6.23;2.27;;;2.10;95.30;;;3.75;67.37;100413.97;3081167;46;20458;-66
2024/01/16 06:42:59;;;;;;;5.13;1.70;;;2.10;95.30;;;3.73;67.42;100406.28;3081103;46;20499;-65
2024/01/16 06:45:27;;;;;;;7.93;2.30;;;2.10;95.40;;;3.73;67.63;100406.28;3081134;46;20574;-64
2024/01/16 06:47:55;;;;;;;4.17;2.10;;;2.10;95.40;;;3.73;67.54;100400.28;3080444;46;20468;-66
2024/01/16 06:50:24;;;;;;;3.17;1.67;;;2.10;95.50;;;3.69;67.79;100404.94;3080753;46;20506;-66
2024/01/16 06:52:52;;;;;;;6.93;1.90;;;2.10;95.50;;;3.67;67.63;100409.47;3080916;46;20982;-64
2024/01/16 06:55:21;;;;;;;8.07;2.20;;;2.10;95.50;;;3.64;67.93;100396.72;3080851;46;20458;-66
2024/01/16 06:57:49;;;;;;;7.63;2.33;;;2.10;95.40;;;3.58;67.62;100397.28;3080833;46;20482;-66
2024/01/16 07:00:18;;;;;;;4.20;2.07;;;2.10;95.40;;;3.54;67.92;100403.75;3080724;46;21126;-66
2024/01/16 07:02:46;;;;;;;8.17;1.80;;;2.00;95.30;;;3.51;68.09;100400.56;3080462;46;20467;-66
2024/01/16 07:05:15;;;;;;;8.07;2.10;;;2.10;95.30;;;3.50;68.25;100415.34;3080913;46;20440;-66
2024/01/16 07:07:43;;;;;;;5.40;2.30;;;2.00;95.40;;;3.51;68.31;100416.19;3080327;46;21007;-66
2024/01/16 07:10:17;;;;;;;6.73;2.10;;;2.00;95.50;;;3.51;68.40;100422.22;3080262;46;21080;-68
2024/01/16 07:12:47;;;;;;;9.83;2.03;;;2.00;95.50;;;3.51;68.07;100421.38;3080691;46;20430;-66
2024/01/16 07:15:15;;;;;;;9.77;2.37;;;2.00;95.50;;;3.54;68.43;100414.16;3081467;46;20605;-66
2024/01/16 07:17:44;;;;;;;5.00;2.03;;;1.90;95.70;;;3.59;68.80;100421.53;3080232;46;20471;-66
2024/01/16 07:20:12;;;;;;;5.97;3.07;;;2.00;95.70;;;3.62;68.66;100422.06;3080565;46;20603;-67
2024/01/16 07:22:41;;;;;;;7.30;3.83;;;2.00;95.80;;;3.66;68.47;100425.22;3081416;46;20451;-65
2024/01/16 07:25:09;;;;;;;8.10;2.37;;;2.00;95.60;;;3.61;68.08;100433.44;3083004;46;20427;-66
2024/01/16 07:27:38;;;;;;;10.73;2.03;;;2.10;95.50;;;3.64;68.25;100432.31;3082793;46;20463;-64
2024/01/16 07:30:07;;;;;;;5.90;3.10;;;2.10;95.50;;;3.65;68.07;100442.59;3083044;46;20581;-65
2024/01/16 07:32:36;;;;;;;10.17;3.10;;;2.10;95.40;;;3.66;68.21;100449.44;3082775;46;20464;-66
2024/01/16 07:35:05;;;;;;;5.47;2.33;;;2.10;95.40;;;3.66;67.76;100446.84;3082840;46;20556;-64
2024/01/16 07:37:33;;;;;;;5.33;2.37;;;2.10;95.30;;;3.63;67.94;100441.94;3081853;46;20453;-66
2024/01/16 07:40:05;;;;;;;13.03;2.83;;;2.10;95.20;;;3.66;67.94;100449.44;3082768;46;20437;-66
2024/01/16 07:42:34;;;;;;;7.37;1.90;;;2.10;95.40;;;3.66;68.03;100446.03;3082777;46;20433;-65
2024/01/16 07:45:04;;;;;;;4.40;1.90;;;2.10;95.30;;;3.70;68.06;100444.78;3082900;46;21105;-66
2024/01/16 07:47:33;;;;;;;8.10;2.33;;;2.10;95.20;;;3.71;67.77;100434.25;3082396;46;21025;-65
2024/01/16 07:50:02;;;;;;;6.87;2.23;;;2.10;95.20;;;3.76;68.13;100432.03;3082891;46;20437;-66
2024/01/16 07:52:34;;;;;;;10.50;5.00;;;2.10;95.20;;;3.80;67.94;100423.03;3082086;46;20426;-65
2024/01/16 07:55:03;;;;;;;7.37;2.33;;;2.20;95.40;;;3.86;68.02;100432.03;3082243;46;21130;-64
2024/01/16 07:57:31;;;;;;;5.23;2.40;;;2.20;95.40;;;3.92;68.04;100428.88;3081371;46;20525;-68
2024/01/16 08:00:00;;;;;;;5.33;1.73;;;2.20;95.30;;;3.96;67.59;100438.88;3082701;46;20454;-66
2024/01/16 08:02:33;;;;;;;4.40;1.57;;;2.20;95.20;;;3.98;67.69;100436.94;3082214;46;20438;-65
2024/01/16 08:05:02;;;;;;;4.80;1.90;;;2.30;95.20;;;3.99;67.42;100438.56;3080804;43;20438;-63
2024/01/16 08:07:31;;;;;;;7.17;2.50;;;2.30;95.10;;;4.00;67.30;100440.22;3081590;46;20450;-65
2024/01/16 08:09:59;;;;;;;10.00;2.43;;;2.30;95.00;;;4.02;67.32;100447.88;3081726;46;20429;-66
2024/01/16 08:12:28;;;;;;;5.90;1.70;;;2.40;95.00;;;4.05;67.56;100452.84;3081731;46;21050;-66
2024/01/16 08:14:56;;;;;;;9.83;1.93;;;2.40;95.00;;;4.07;67.14;100454.34;3080692;46;21079;-66
2024/01/16 08:17:25;;;;;;;5.93;1.93;;;2.40;95.00;;;4.10;67.42;100456.66;3080854;46;20443;-65
2024/01/16 08:19:53;;;;;;;7.40;2.30;;;2.40;94.90;;;4.13;67.06;100465.97;3081879;46;21110;-66
2024/01/16 08:22:21;;;;;;;6.33;2.10;;;2.50;95.00;;;4.16;67.31;100464.88;3081866;46;20438;-66
2024/01/16 08:24:50;;;;;;;4.40;2.57;;;2.50;94.90;;;4.18;66.99;100462.94;3079678;46;21104;-66
2024/01/16 08:27:19;;;;;;;9.37;2.03;;;2.50;94.80;;;4.19;66.67;100464.56;3080975;46;20450;-66
2024/01/16 08:29:50;;;;;;;5.65;2.72;;;2.50;94.80;;;4.29;66.96;100470.59;3080866;46;22389;-66
2024/01/16 08:32:19;;;;;;;11.70;2.37;;;2.50;94.90;;;4.32;66.91;100452.09;3080918;46;21175;-64
2024/01/16 08:34:47;;;;;;;10.73;2.37;;;2.50;94.90;;;4.34;66.90;100457.97;3081170;46;20466;-66
2024/01/16 08:37:16;;;;;;;4.30;2.10;;;2.50;94.80;;;4.36;66.54;100466.47;3081536;46;21114;-65
2024/01/16 08:39:44;;;;;;;11.90;2.60;;;2.60;94.80;;;4.36;66.42;100475.09;3082139;46;20575;-66
2024/01/16 08:42:13;;;;;;;7.47;2.50;;;2.60;94.70;;;4.38;66.43;100474.94;3081929;46;21052;-65
2024/01/16 08:44:41;;;;;;;7.57;3.40;;;2.60;94.70;;;4.42;66.48;100473.72;3081455;46;20504;-65
2024/01/16 08:47:09;;;;;;;8.70;3.67;;;2.60;94.80;;;4.47;66.41;100479.34;3081684;46;20502;-64
2024/01/16 08:49:38;;;;;;;8.07;2.87;;;2.70;94.80;;;4.50;66.41;100474.66;3081464;46;20482;-66
2024/01/16 08:52:07;;;;;;;13.60;3.60;;;2.70;94.80;;;4.55;66.32;100482.88;3082236;46;20438;-66
2024/01/16 08:54:35;;;;;;;6.50;2.97;;;2.70;94.80;;;4.57;66.19;100474.88;3081744;46;20462;-66
2024/01/16 08:57:04;;;;;;;19.10;4.23;;;2.80;94.70;;;4.62;66.09;100470.91;3080821;46;21032;-66
2024/01/16 08:59:32;;;;;;;8.03;3.60;;;2.80;94.70;;;4.64;65.91;100470.75;3081063;44;21351;-66
2024/01/16 09:02:01;;;;;;;9.70;3.67;;;2.80;94.60;;;4.67;65.90;100478.28;3081369;46;20471;-66
2024/01/16 09:04:29;;;;;;;9.17;3.67;;;2.90;94.70;;;4.70;66.01;100471.03;3081294;46;20788;-66
2024/01/16 09:06:57;;;;;;;5.77;3.03;;;2.90;94.70;;;4.75;65.78;100479.22;3080248;46;20427;-64
2024/01/16 09:09:26;;;;;;;9.77;3.83;;;2.90;94.70;;;4.79;66.15;100459.72;3080442;46;21142;-65
2024/01/16 09:11:54;;;;;;;9.50;3.23;;;2.90;94.70;;;4.84;65.63;100472.31;3081419;46;20430;-66
2024/01/16 09:14:23;;;;;;;10.40;3.73;;;3.00;94.60;;;4.88;65.79;100473.66;3081447;46;20427;-67
2024/01/16 09:16:53;;;;;;;8.13;3.77;;;3.00;94.60;;;4.92;65.80;100482.03;3080846;46;20531;-66
2024/01/16 09:19:21;;;;;;;14.63;3.90;;;3.00;94.70;;;4.97;65.80;100478.00;3081261;46;21000;-65
2024/01/16 09:21:50;;;;;;;9.67;3.27;;;3.10;94.50;;;4.98;65.55;100474.44;3081546;46;20519;-66
2024/01/16 09:24:18;;;;;;;6.53;3.30;;;3.10;94.40;;;5.02;65.56;100478.41;3081293;46;20504;-66
2024/01/16 09:26:47;;;;;;;6.50;3.10;;;3.20;94.40;;;5.06;65.35;100476.34;3081037;46;20458;-66
2024/01/16 09:29:16;;;;;;;10.50;3.10;;;3.20;94.30;;;5.06;65.34;100482.38;3081662;46;20461;-66
2024/01/16 09:31:44;;;;;;;6.77;3.07;;;3.20;94.20;;;5.08;65.03;100485.66;3080645;46;20472;-66
2024/01/16 09:34:13;;;;;;;6.83;3.20;;;3.20;94.10;;;5.08;64.98;100477.00;3080888;46;20550;-66
2024/01/16 09:36:42;;;;;;;5.53;3.10;;;3.30;94.10;;;5.06;65.05;100469.34;3080248;46;21081;-66
2024/01/16 09:39:10;;;;;;;7.13;3.63;;;3.30;94.00;;;5.08;65.09;100485.66;3081244;46;21026;-66
2024/01/16 09:41:42;;;;;;;9.77;3.40;;;3.30;93.90;;;5.12;64.80;100486.16;3080467;43;20438;-66
2024/01/16 09:44:11;;;;;;;9.40;3.83;;;3.30;93.90;;;5.12;64.85;100480.94;3079178;46;20467;-64
2024/01/16 09:46:46;;;;;;;7.10;3.93;;;3.30;94.00;;;5.15;64.72;100481.50;3079149;46;20474;-66
2024/01/16 09:49:17;;;;;;;8.23;3.90;;;3.30;94.00;;;5.15;64.58;100481.50;3080901;46;20553;-65
2024/01/16 09:51:46;;;;;;;8.20;2.90;;;3.40;93.90;;;5.14;64.51;100479.84;3080810;46;20443;-65
2024/01/16 09:54:15;;;;;;;6.20;3.17;;;3.40;93.80;;;5.15;64.59;100476.28;3079827;44;20480;-65
2024/01/16 09:56:51;;;;;;;4.90;3.00;;;3.40;93.80;;;5.17;64.50;100479.56;3081227;46;20451;-66
2024/01/16 09:59:22;;;;;;;8.40;3.30;;;3.40;93.80;;;5.22;64.38;100482.56;3080161;46;20449;-66
2024/01/16 10:01:55;;;;;;;5.83;2.97;;;3.40;93.80;;;5.23;64.50;100478.97;3077771;46;20980;-66
2024/01/16 10:04:23;;;;;;;5.60;3.00;;;3.40;93.70;;;5.26;64.35;100481.28;3076839;43;20429;-66
2024/01/16 10:06:56;;;;;;;7.10;3.20;;;3.50;93.60;;;5.26;64.14;100489.09;3080004;46;20632;-66
2024/01/16 10:09:25;;;;;;;8.40;3.37;;;3.50;93.50;;;5.32;64.44;100492.94;3080793;46;20579;-65
2024/01/16 10:11:54;;;;;;;5.93;3.03;;;3.50;93.60;;;5.40;64.24;100480.78;3081220;46;20485;-66
2024/01/16 10:14:24;;;;;;;4.33;2.90;;;3.50;93.60;;;5.52;63.99;100483.16;3080688;46;20452;-65
2024/01/16 10:17:09;;;;;;;6.27;3.53;;;3.60;93.70;;;5.61;64.15;100490.13;3080701;43;20506;-66
2024/01/16 10:19:52;;;;;;;6.50;3.43;;;3.70;93.70;;;5.70;63.58;100494.44;3080736;46;20538;-66
2024/01/16 10:22:24;;;;;;;6.33;3.87;;;3.70;93.40;;;5.81;63.73;100489.00;3079044;46;20589;-66
2024/01/16 10:25:16;;;;;;;7.63;3.53;;;3.80;93.40;;;5.93;63.28;100487.81;3080055;46;20596;-67
2024/01/16 10:27:44;;;;;;;5.90;2.93;;;3.90;93.30;;;6.06;63.13;100489.06;3080398;46;20477;-66
2024/01/16 10:30:13;;;;;;;10.17;4.53;;;4.00;93.20;;;6.15;62.82;100487.34;3080863;46;20514;-67
2024/01/16 10:32:43;;;;;;;10.07;5.50;;;4.10;93.30;;;6.24;62.36;100483.81;3080496;46;20531;-66